Time;durP1;ratioP1;P1;durP2;ratioP2;P2;SDS_P1;SDS_P2;PMS_P1;PMS_P2;Temp;Humidity;BMP_temperature;BMP_pressure;BME280_temperature;BME280_humidity;BME280_pressure;Samples;Min_cycle;Max_cycle;Signal;HPM_P1;HPM_P2
2022/01/08 00:01:11;;;;;;;12.27;6.22;;;;;;;-3.75;74.69;99010.81;4485389;31;20159;-75
2022/01/08 00:03:39;;;;;;;13.38;6.57;;;;;;;-3.81;74.51;99008.41;4485620;31;20084;-74
2022/01/08 00:06:08;;;;;;;17.30;7.28;;;;;;;-3.78;74.67;98998.09;4485515;31;20128;-75
2022/01/08 00:08:35;;;;;;;13.23;6.47;;;;;;;-3.76;75.09;98998.88;4485589;31;20084;-75
2022/01/08 00:11:02;;;;;;;11.73;6.03;;;;;;;-3.75;75.00;98990.31;4485520;31;20569;-75
2022/01/08 00:13:29;;;;;;;13.88;6.47;;;;;;;-3.83;74.96;98993.97;4485212;31;20128;-75
2022/01/08 00:15:56;;;;;;;14.50;6.07;;;;;;;-3.70;74.95;98997.06;4485498;31;20115;-74
2022/01/08 00:18:24;;;;;;;17.33;6.93;;;;;;;-3.76;75.02;98998.88;4485448;31;20097;-74
2022/01/08 00:20:51;;;;;;;13.98;6.32;;;;;;;-3.80;75.01;98992.19;4485430;31;20088;-75
2022/01/08 00:23:18;;;;;;;15.07;6.45;;;;;;;-3.75;74.70;98992.88;4485407;31;20101;-74
2022/01/08 00:25:45;;;;;;;12.98;6.28;;;;;;;-3.79;74.55;98993.84;4485263;32;20097;-75
2022/01/08 00:28:12;;;;;;;12.45;6.22;;;;;;;-3.81;74.43;98995.63;4485818;31;20122;-74
2022/01/08 00:30:39;;;;;;;15.18;7.03;;;;;;;-3.83;74.44;98992.28;4485348;31;20437;-75
2022/01/08 00:33:07;;;;;;;16.20;6.50;;;;;;;-3.81;74.37;98977.69;4485392;31;20105;-75
2022/01/08 00:35:34;;;;;;;11.52;6.20;;;;;;;-3.89;74.69;98981.34;4485354;31;20084;-75
2022/01/08 00:38:02;;;;;;;15.95;6.70;;;;;;;-4.07;75.80;98983.53;4485182;31;20100;-75
2022/01/08 00:40:29;;;;;;;20.88;6.80;;;;;;;-4.15;76.41;98975.19;4485719;32;20096;-75
2022/01/08 00:42:58;;;;;;;13.62;6.65;;;;;;;-4.30;76.69;98979.84;4485167;31;20096;-74
2022/01/08 00:45:25;;;;;;;14.18;6.95;;;;;;;-4.26;76.81;98974.66;4485136;31;20171;-75
2022/01/08 00:47:52;;;;;;;19.83;7.70;;;;;;;-4.21;76.40;98968.53;4485150;31;20159;-74
2022/01/08 00:50:21;;;;;;;15.93;7.22;;;;;;;-4.35;76.86;98968.03;4485185;31;20447;-75
2022/01/08 00:52:48;;;;;;;14.02;6.82;;;;;;;-4.33;76.93;98958.59;4484986;31;20111;-75
2022/01/08 00:55:16;;;;;;;18.30;7.60;;;;;;;-4.33;76.99;98956.03;4485062;31;20187;-75
2022/01/08 00:57:43;;;;;;;17.37;7.18;;;;;;;-4.37;77.38;98952.75;4484887;31;20107;-75
2022/01/08 01:00:12;;;;;;;18.12;6.80;;;;;;;-4.33;76.97;98950.94;4485199;31;20128;-75
2022/01/08 01:02:40;;;;;;;18.73;7.22;;;;;;;-4.46;77.45;98950.41;4484958;31;20438;-74
2022/01/08 01:05:08;;;;;;;13.95;6.97;;;;;;;-4.43;77.41;98952.91;4485297;31;20580;-75
2022/01/08 01:07:36;;;;;;;20.10;7.15;;;;;;;-4.53;77.75;98949.72;4485338;31;20123;-74
2022/01/08 01:10:04;;;;;;;14.57;6.93;;;;;;;-4.50;77.74;98933.47;4485159;31;20505;-74
2022/01/08 01:12:31;;;;;;;21.05;7.40;;;;;;;-4.57;78.02;98922.56;4484817;31;20563;-75
2022/01/08 01:15:09;;;;;;;20.48;7.57;;;;;;;-4.57;78.16;98927.69;4485021;32;20147;-75
2022/01/08 01:17:36;;;;;;;15.80;6.45;;;;;;;-4.60;77.95;98926.91;4485001;31;20088;-74
2022/01/08 01:20:05;;;;;;;16.00;7.25;;;;;;;-4.55;77.76;98925.91;4484439;31;20116;-75
2022/01/08 01:22:44;;;;;;;19.02;7.05;;;;;;;-4.54;77.84;98921.63;4484947;31;20175;-75
2022/01/08 01:25:19;;;;;;;15.10;6.78;;;;;;;-4.47;77.48;98916.34;4485089;31;20110;-75
2022/01/08 01:28:21;;;;;;;18.27;7.18;;;;;;;-4.42;77.37;98915.38;4485050;32;20110;-75
2022/01/08 01:47:03;;;;;;;14.93;6.85;;;;;;;-4.50;76.35;98902.78;4484752;31;20084;-75
2022/01/08 01:49:31;;;;;;;16.15;6.90;;;;;;;-4.58;76.79;98891.94;4484355;32;20152;-74
2022/01/08 01:51:59;;;;;;;13.18;6.85;;;;;;;-4.68;77.29;98886.19;4484852;31;20123;-75
2022/01/08 01:54:30;;;;;;;18.12;7.18;;;;;;;-4.71;77.21;98886.28;4484522;31;20088;-74
2022/01/08 01:56:59;;;;;;;15.48;6.55;;;;;;;-4.82;77.60;98882.28;4484521;31;20167;-74
2022/01/08 01:59:28;;;;;;;18.08;6.78;;;;;;;-4.82;77.57;98884.00;4484413;31;20097;-74
2022/01/08 02:01:55;;;;;;;21.60;7.45;;;;;;;-4.88;77.76;98884.97;4484634;31;20374;-74
2022/01/08 02:04:23;;;;;;;14.75;6.60;;;;;;;-4.88;77.67;98876.50;4484647;32;20147;-75
2022/01/08 02:06:50;;;;;;;14.73;6.18;;;;;;;-4.90;77.44;98889.31;4484265;31;20088;-74
2022/01/08 02:09:18;;;;;;;12.07;5.40;;;;;;;-4.98;77.61;98881.00;4484203;31;20135;-74
2022/01/08 02:12:12;;;;;;;12.88;5.95;;;;;;;-5.03;77.31;98880.25;4484491;31;20100;-75
2022/01/08 02:14:39;;;;;;;16.17;6.50;;;;;;;-5.13;77.80;98882.19;4480872;32;20640;-74
2022/01/08 02:17:08;;;;;;;13.65;6.07;;;;;;;-5.09;77.57;98877.84;4484314;31;20195;-74
2022/01/08 02:19:37;;;;;;;10.98;5.53;;;;;;;-5.10;77.43;98873.59;4484314;31;20104;-75
2022/01/08 02:22:05;;;;;;;16.52;6.05;;;;;;;-5.20;77.87;98871.28;4468578;32;20101;-74
2022/01/08 02:24:32;;;;;;;13.75;5.78;;;;;;;-5.23;78.18;98879.00;4468467;32;20127;-74
2022/01/08 02:27:00;;;;;;;19.62;7.35;;;;;;;-5.26;78.38;98868.03;4468506;32;20493;-74
2022/01/08 02:29:27;;;;;;;14.60;6.10;;;;;;;-5.29;78.47;98870.66;4468314;32;20089;-74
2022/01/08 02:31:57;;;;;;;11.00;5.43;;;;;;;-5.28;78.50;98868.06;4469810;32;20135;-75
2022/01/08 02:34:26;;;;;;;13.45;5.82;;;;;;;-5.29;78.33;98863.00;4470583;32;20097;-74
2022/01/08 02:36:55;;;;;;;17.08;5.95;;;;;;;-5.30;78.44;98866.41;4470467;32;20092;-74
2022/01/08 02:39:22;;;;;;;11.90;5.85;;;;;;;-5.40;78.77;98863.25;4470746;32;20159;-75
2022/01/08 02:41:54;;;;;;;13.27;5.30;;;;;;;-5.43;78.69;98860.78;4470517;32;20123;-74
2022/01/08 02:44:22;;;;;;;17.40;5.90;;;;;;;-5.37;78.54;98865.75;4470284;32;20093;-74
2022/01/08 02:46:50;;;;;;;14.75;5.97;;;;;;;-5.42;78.69;98864.97;4470445;32;20118;-74
2022/01/08 02:49:17;;;;;;;14.18;5.65;;;;;;;-5.39;78.55;98864.91;4470052;32;20120;-74
2022/01/08 02:51:44;;;;;;;9.73;5.53;;;;;;;-5.43;78.82;98855.66;4470461;32;20093;-75
2022/01/08 02:54:12;;;;;;;13.70;6.07;;;;;;;-5.63;79.75;98859.50;4470186;32;21020;-74
2022/01/08 02:56:43;;;;;;;12.20;5.57;;;;;;;-5.71;80.31;98853.72;4470705;32;20088;-74
2022/01/08 02:59:10;;;;;;;22.83;6.30;;;;;;;-5.75;80.61;98844.47;4470348;32;20588;-75
2022/01/08 03:01:38;;;;;;;12.75;5.82;;;;;;;-5.71;80.43;98849.47;4482124;32;20389;-75
2022/01/08 03:04:06;;;;;;;14.73;5.97;;;;;;;-5.62;80.15;98857.78;4485986;31;20803;-75
2022/01/08 03:06:34;;;;;;;13.30;6.00;;;;;;;-5.62;80.06;98858.63;4486002;31;20420;-75
2022/01/08 03:09:02;;;;;;;12.23;6.03;;;;;;;-5.65;80.20;98856.13;4486005;31;20172;-74
2022/01/08 03:11:29;;;;;;;15.90;5.18;;;;;;;-5.71;80.54;98848.59;4486062;31;20100;-74
2022/01/08 03:13:56;;;;;;;16.20;6.10;;;;;;;-5.78;80.92;98852.19;4485658;31;20767;-75
2022/01/08 03:16:24;;;;;;;19.77;7.28;;;;;;;-5.83;80.97;98853.97;4486152;31;20088;-75
2022/01/08 03:18:51;;;;;;;18.25;6.75;;;;;;;-5.91;81.31;98857.53;4485662;31;20485;-75
2022/01/08 03:21:21;;;;;;;19.20;7.87;;;;;;;-5.88;81.32;98856.63;4485836;31;20097;-74
2022/01/08 03:23:57;;;;;;;18.45;7.22;;;;;;;-5.97;81.35;98857.69;4485682;31;20092;-74
2022/01/08 03:26:27;;;;;;;18.37;6.43;;;;;;;-6.03;81.26;98859.53;4485771;31;20088;-74
2022/01/08 03:28:55;;;;;;;15.43;6.47;;;;;;;-6.03;81.03;98857.81;4485679;31;20151;-74
2022/01/08 03:31:25;;;;;;;11.60;5.50;;;;;;;-6.06;81.13;98852.78;4485975;31;20093;-75
2022/01/08 03:33:53;;;;;;;13.40;5.85;;;;;;;-6.04;80.98;98856.16;4485581;31;20096;-74
2022/01/08 03:36:22;;;;;;;13.40;6.72;;;;;;;-6.02;80.70;98851.84;4485743;31;20135;-75
2022/01/08 03:38:50;;;;;;;15.52;7.00;;;;;;;-6.08;80.42;98860.47;4485558;31;20097;-74
2022/01/08 03:41:19;;;;;;;13.80;5.95;;;;;;;-6.12;80.56;98866.50;4485635;31;20124;-75
2022/01/08 03:43:47;;;;;;;14.00;5.70;;;;;;;-6.07;80.46;98869.81;4483662;32;20096;-75
2022/01/08 03:46:14;;;;;;;14.55;5.93;;;;;;;-6.05;80.24;98864.69;4485643;31;20083;-75
2022/01/08 03:48:46;;;;;;;14.68;6.25;;;;;;;-6.15;80.23;98863.19;4485216;31;20492;-75
2022/01/08 03:51:14;;;;;;;9.63;5.22;;;;;;;-6.09;79.99;98868.97;4485680;31;20108;-74
2022/01/08 03:53:42;;;;;;;15.07;5.57;;;;;;;-6.15;80.13;98873.37;4485420;31;20127;-75
2022/01/08 03:56:09;;;;;;;13.73;5.72;;;;;;;-6.21;80.29;98874.31;4485409;32;20176;-74
2022/01/08 03:58:37;;;;;;;14.05;5.65;;;;;;;-6.23;80.22;98865.06;4485447;31;20123;-75
2022/01/08 04:01:04;;;;;;;14.10;5.55;;;;;;;-6.25;80.11;98859.97;4485666;31;20096;-75
2022/01/08 04:03:31;;;;;;;12.05;5.00;;;;;;;-6.26;80.12;98868.50;4485487;31;20119;-75
2022/01/08 04:05:59;;;;;;;15.57;5.12;;;;;;;-6.35;80.62;98866.94;4485536;31;20118;-75
2022/01/08 04:08:26;;;;;;;13.32;5.10;;;;;;;-6.44;81.08;98846.75;4485442;31;20119;-75
2022/01/08 04:10:53;;;;;;;11.85;4.80;;;;;;;-6.35;80.81;98854.22;4485382;31;20119;-75
2022/01/08 04:13:25;;;;;;;11.70;5.28;;;;;;;-6.24;80.39;98851.44;4485315;31;20088;-75
2022/01/08 04:15:54;;;;;;;13.35;5.82;;;;;;;-6.22;80.17;98841.22;4485185;31;20143;-75
2022/01/08 04:18:22;;;;;;;17.17;5.75;;;;;;;-6.31;80.47;98842.25;4485350;31;20733;-75
2022/01/08 04:23:23;;;;;;;10.80;4.47;;;;;;;-6.53;81.50;98837.56;4485729;31;20085;-75
2022/01/08 04:25:50;;;;;;;9.30;3.87;;;;;;;-6.57;81.83;98832.53;4485285;31;20089;-75
2022/01/08 04:28:17;;;;;;;9.95;4.72;;;;;;;-6.58;81.88;98833.44;4485340;31;20080;-74
2022/01/08 04:30:45;;;;;;;17.85;4.72;;;;;;;-6.55;81.92;98824.00;4485189;31;20089;-75
2022/01/08 04:33:12;;;;;;;13.73;4.20;;;;;;;-6.41;81.57;98823.75;4485355;31;20096;-74
2022/01/08 04:35:40;;;;;;;11.48;3.78;;;;;;;-6.49;81.74;98817.97;4485264;31;20176;-75
2022/01/08 04:38:07;;;;;;;8.80;3.78;;;;;;;-6.47;82.03;98813.66;4485204;31;20100;-75
2022/01/08 04:40:34;;;;;;;7.50;3.75;;;;;;;-6.33;81.52;98800.66;4485184;31;20085;-75
2022/01/08 04:43:02;;;;;;;8.68;3.97;;;;;;;-6.27;81.22;98798.81;4485221;31;20097;-75
2022/01/08 04:45:30;;;;;;;10.82;4.68;;;;;;;-6.22;80.92;98801.28;4485358;32;20096;-75
2022/01/08 04:48:00;;;;;;;10.13;4.78;;;;;;;-6.23;80.94;98798.75;4485186;31;20084;-75
2022/01/08 04:50:28;;;;;;;9.95;4.65;;;;;;;-6.20;80.56;98799.53;4485091;31;20128;-75
2022/01/08 04:52:56;;;;;;;12.20;4.57;;;;;;;-6.23;80.69;98803.87;4485105;31;20119;-75
2022/01/08 04:55:23;;;;;;;10.13;4.28;;;;;;;-6.20;80.70;98808.91;4484284;31;20390;-75
2022/01/08 04:57:51;;;;;;;11.90;5.12;;;;;;;-6.06;80.20;98806.88;4485236;31;20114;-75
2022/01/08 05:00:19;;;;;;;21.17;6.50;;;;;;;-6.17;80.45;98788.44;4485020;31;20124;-75
2022/01/08 05:02:47;;;;;;;10.68;5.37;;;;;;;-6.38;81.38;98788.00;4485167;31;20088;-75
2022/01/08 05:05:14;;;;;;;22.35;7.60;;;;;;;-6.18;80.88;98784.19;4485002;31;20092;-75
2022/01/08 05:07:42;;;;;;;20.20;6.50;;;;;;;-6.24;80.80;98790.25;4485018;31;20488;-75
2022/01/08 05:10:09;;;;;;;18.92;5.85;;;;;;;-6.22;80.99;98785.97;4485011;31;20096;-75
2022/01/08 05:12:36;;;;;;;15.15;5.65;;;;;;;-6.00;80.18;98788.06;4484850;31;20092;-75
2022/01/08 05:15:04;;;;;;;19.30;7.30;;;;;;;-5.90;79.66;98803.09;4484946;31;20115;-75
2022/01/08 05:17:35;;;;;;;26.42;7.78;;;;;;;-5.91;79.82;98796.31;4484853;31;20096;-75
2022/01/08 05:20:06;;;;;;;21.17;5.90;;;;;;;-5.90;80.04;98790.34;4485036;31;20123;-75
2022/01/08 05:25:19;;;;;;;10.02;4.20;;;;;;;-5.71;79.28;98800.12;4484980;31;20141;-74
2022/01/08 05:27:47;;;;;;;7.93;4.50;;;;;;;-5.68;79.07;98802.59;4484994;31;20196;-74
2022/01/08 05:30:16;;;;;;;13.35;5.40;;;;;;;-5.65;79.22;98801.72;4483735;32;20127;-75
2022/01/08 05:32:44;;;;;;;17.25;4.90;;;;;;;-5.65;79.36;98794.88;4484969;31;20088;-75
2022/01/08 05:35:11;;;;;;;9.65;4.30;;;;;;;-5.48;78.99;98798.75;4484774;31;20161;-75
2022/01/08 05:37:39;;;;;;;8.48;4.10;;;;;;;-5.35;78.17;98800.97;4484761;31;20096;-75
2022/01/08 05:40:09;;;;;;;11.02;4.47;;;;;;;-5.54;78.98;98800.59;4484723;31;20163;-75
2022/01/08 05:42:37;;;;;;;7.00;3.80;;;;;;;-5.59;78.95;98802.41;4484734;31;20123;-75
2022/01/08 05:45:05;;;;;;;10.38;4.20;;;;;;;-5.54;78.77;98792.94;4484761;31;20093;-75
2022/01/08 05:47:34;;;;;;;8.48;4.35;;;;;;;-5.79;80.35;98786.72;4483322;32;20080;-75
2022/01/08 05:50:03;;;;;;;10.80;4.30;;;;;;;-5.76;80.30;98790.03;4484559;31;20128;-75
2022/01/08 05:52:30;;;;;;;8.20;3.85;;;;;;;-5.66;79.64;98794.91;4484626;31;20096;-75
2022/01/08 05:54:57;;;;;;;14.65;4.47;;;;;;;-5.79;80.07;98797.75;4484374;31;20474;-75
2022/01/08 05:57:24;;;;;;;8.95;4.50;;;;;;;-5.89;80.80;98802.25;4484562;32;20089;-75
2022/01/08 05:59:51;;;;;;;8.30;3.87;;;;;;;-5.90;80.85;98805.66;4484386;31;20160;-75
2022/01/08 06:02:18;;;;;;;11.45;4.07;;;;;;;-5.94;80.92;98819.34;4484460;31;20097;-74
2022/01/08 06:04:46;;;;;;;12.05;4.78;;;;;;;-5.91;80.79;98818.44;4484578;31;20092;-75
2022/01/08 06:07:14;;;;;;;14.25;4.20;;;;;;;-5.98;81.00;98820.31;4486252;31;20083;-75
2022/01/08 06:09:41;;;;;;;9.75;4.78;;;;;;;-5.96;80.92;98826.19;4486467;31;20119;-75
2022/01/08 06:12:08;;;;;;;14.65;5.47;;;;;;;-6.02;81.10;98828.06;4486292;31;20096;-75
2022/01/08 06:14:36;;;;;;;11.05;5.35;;;;;;;-6.09;81.45;98828.19;4486237;31;20097;-75
2022/01/08 06:17:04;;;;;;;10.15;4.53;;;;;;;-6.21;81.93;98842.91;4486285;31;20103;-75
2022/01/08 06:19:32;;;;;;;15.38;6.03;;;;;;;-6.32;82.43;98849.03;4486143;31;20113;-75
2022/01/08 06:22:00;;;;;;;11.45;5.30;;;;;;;-6.34;82.34;98847.38;4486134;31;20164;-75
2022/01/08 06:24:27;;;;;;;11.07;5.22;;;;;;;-6.44;82.45;98839.09;4486266;31;20096;-75
2022/01/08 06:26:55;;;;;;;11.07;5.00;;;;;;;-6.42;82.42;98835.66;4486277;32;20080;-75
2022/01/08 06:29:22;;;;;;;8.23;3.83;;;;;;;-6.48;82.54;98840.88;4486327;31;20101;-75
2022/01/08 06:31:50;;;;;;;11.52;4.72;;;;;;;-6.61;83.31;98842.78;4484771;32;20453;-75
2022/01/08 06:34:17;;;;;;;11.88;4.65;;;;;;;-6.61;83.29;98842.78;4486271;31;20131;-75
2022/01/08 06:36:44;;;;;;;15.43;4.70;;;;;;;-6.55;83.22;98833.38;4486086;31;20118;-75
2022/01/08 06:39:11;;;;;;;12.27;5.22;;;;;;;-6.54;83.03;98827.37;4486094;31;20096;-75
2022/01/08 06:41:39;;;;;;;8.70;3.97;;;;;;;-6.56;83.24;98829.13;4486126;31;20622;-75
2022/01/08 06:44:06;;;;;;;18.75;5.12;;;;;;;-6.56;83.14;98832.50;4486265;31;20446;-75
2022/01/08 06:46:33;;;;;;;11.25;4.55;;;;;;;-6.45;82.93;98829.75;4485994;31;20110;-75
2022/01/08 06:49:00;;;;;;;9.75;4.45;;;;;;;-6.45;82.85;98825.53;4485797;31;20101;-75
2022/01/08 06:51:28;;;;;;;8.63;4.47;;;;;;;-6.50;83.28;98824.75;4485885;31;20100;-75
2022/01/08 06:53:55;;;;;;;10.00;4.82;;;;;;;-6.46;83.02;98823.00;4485954;31;20084;-75
2022/01/08 06:56:22;;;;;;;7.55;3.65;;;;;;;-6.52;83.01;98823.12;4486041;31;20114;-75
2022/01/08 06:58:49;;;;;;;15.15;4.35;;;;;;;-6.51;83.15;98829.88;4485869;31;20119;-75
2022/01/08 07:01:16;;;;;;;18.92;4.97;;;;;;;-6.40;82.68;98830.53;4485862;31;20096;-75
2022/01/08 07:03:44;;;;;;;11.98;4.80;;;;;;;-6.46;82.69;98825.56;4485913;31;20092;-75
2022/01/08 07:06:11;;;;;;;9.77;3.95;;;;;;;-6.38;82.46;98821.13;4486000;32;20155;-75
2022/01/08 07:08:38;;;;;;;12.68;5.25;;;;;;;-6.37;82.47;98817.72;4485746;31;20446;-74
2022/01/08 07:11:05;;;;;;;11.70;4.47;;;;;;;-6.34;82.41;98807.47;4485835;31;20581;-75
2022/01/08 07:13:34;;;;;;;8.90;4.70;;;;;;;-6.30;82.65;98804.00;4485667;31;20115;-74
2022/01/08 07:16:01;;;;;;;9.85;4.37;;;;;;;-6.22;82.52;98797.88;4485877;31;20122;-75
2022/01/08 07:18:28;;;;;;;9.88;5.25;;;;;;;-6.10;82.10;98803.56;4485452;31;20084;-75
2022/01/08 07:20:55;;;;;;;10.15;4.70;;;;;;;-6.02;81.92;98803.41;4485887;31;20096;-74
2022/01/08 07:23:22;;;;;;;11.45;4.78;;;;;;;-6.03;82.01;98800.88;4485719;31;20100;-75
2022/01/08 07:25:50;;;;;;;10.93;4.68;;;;;;;-5.95;81.98;98807.47;4485799;32;20084;-75
2022/01/08 07:28:17;;;;;;;8.77;3.83;;;;;;;-5.75;81.50;98806.19;4485758;31;20092;-75
2022/01/08 07:30:45;;;;;;;10.90;4.57;;;;;;;-5.54;80.78;98795.50;4485857;31;20097;-74
2022/01/08 07:33:13;;;;;;;10.93;4.40;;;;;;;-5.45;80.16;98798.69;4485887;32;20153;-75
2022/01/08 07:35:41;;;;;;;12.10;4.75;;;;;;;-5.29;79.38;98797.44;4485866;31;20609;-74
2022/01/08 07:38:08;;;;;;;9.95;4.37;;;;;;;-5.12;78.44;98801.31;4484429;32;20104;-74
2022/01/08 07:40:35;;;;;;;14.18;4.40;;;;;;;-5.12;78.68;98793.62;4485617;32;20168;-75
2022/01/08 07:43:03;;;;;;;9.23;4.00;;;;;;;-5.09;78.67;98796.13;4485521;31;20096;-75
2022/01/08 07:45:31;;;;;;;9.95;4.40;;;;;;;-5.02;78.18;98810.41;4485512;31;20088;-75
2022/01/08 07:47:58;;;;;;;11.15;5.00;;;;;;;-5.01;78.36;98804.41;4485940;31;20117;-75
2022/01/08 07:50:25;;;;;;;11.35;5.20;;;;;;;-4.95;78.29;98799.16;4485426;31;20084;-75
2022/01/08 07:52:53;;;;;;;9.95;5.22;;;;;;;-4.75;77.73;98792.66;4485809;31;20092;-75
2022/01/08 07:55:20;;;;;;;15.20;5.87;;;;;;;-4.64;76.94;98778.72;4484070;32;20114;-75
2022/01/08 07:57:48;;;;;;;10.00;4.62;;;;;;;-4.61;76.81;98780.38;4485543;32;20185;-75
2022/01/08 08:00:15;;;;;;;15.75;5.18;;;;;;;-4.58;77.00;98784.56;4485439;31;20092;-74
2022/01/08 08:02:42;;;;;;;11.25;4.62;;;;;;;-4.29;76.76;98786.28;4485345;31;20104;-75
2022/01/08 08:05:10;;;;;;;11.38;4.93;;;;;;;-4.04;75.03;98783.00;4485504;31;20147;-75
2022/01/08 08:07:39;;;;;;;15.05;5.70;;;;;;;-3.85;74.47;98786.69;4485434;31;20100;-75
2022/01/08 08:10:12;;;;;;;13.07;5.18;;;;;;;-3.56;73.32;98779.84;4484332;32;20586;-75
2022/01/08 08:12:40;;;;;;;14.15;5.80;;;;;;;-3.49;72.68;98773.66;4485394;31;20556;-75
2022/01/08 08:15:08;;;;;;;19.17;5.20;;;;;;;-3.29;71.70;98772.16;4485242;31;20088;-75
2022/01/08 08:17:36;;;;;;;17.00;5.95;;;;;;;-3.26;71.32;98767.78;4485414;31;20100;-75
2022/01/08 08:20:05;;;;;;;12.05;5.75;;;;;;;-3.03;70.93;98758.47;4485339;31;20409;-75
2022/01/08 08:22:32;;;;;;;16.67;5.82;;;;;;;-2.85;70.85;98749.31;4485367;31;20551;-75
2022/01/08 08:24:59;;;;;;;17.48;6.05;;;;;;;-2.89;70.71;98745.22;4483932;32;20091;-74
2022/01/08 08:27:27;;;;;;;15.48;6.20;;;;;;;-2.88;70.33;98744.28;4485368;31;20166;-75
2022/01/08 08:29:54;;;;;;;11.05;5.47;;;;;;;-2.96;70.34;98743.75;4484068;31;20220;-75
2022/01/08 08:32:21;;;;;;;17.90;6.75;;;;;;;-3.06;71.50;98741.50;4485552;31;20160;-74
2022/01/08 08:34:50;;;;;;;16.17;6.20;;;;;;;-3.10;71.83;98739.91;4485111;32;20092;-74
2022/01/08 08:37:18;;;;;;;10.18;5.07;;;;;;;-3.12;71.82;98743.41;4485366;32;20093;-74
2022/01/08 08:39:45;;;;;;;12.35;5.45;;;;;;;-3.20;71.86;98741.13;4485210;31;20454;-75
2022/01/08 08:42:13;;;;;;;10.05;4.82;;;;;;;-3.17;71.80;98735.06;4485320;31;20096;-75
2022/01/08 08:44:40;;;;;;;13.77;6.28;;;;;;;-3.07;71.51;98734.69;4485149;31;20122;-74
2022/01/08 08:47:08;;;;;;;15.15;5.40;;;;;;;-3.18;70.61;98739.31;4485262;31;20759;-74
2022/01/08 08:49:36;;;;;;;16.12;5.32;;;;;;;-3.14;71.22;98734.97;4485072;31;20513;-74
2022/01/08 08:52:03;;;;;;;10.85;5.15;;;;;;;-3.15;71.20;98743.53;4485363;31;20542;-74
2022/01/08 08:54:31;;;;;;;11.57;5.03;;;;;;;-2.98;71.10;98755.75;4484991;31;20076;-74
2022/01/08 08:56:58;;;;;;;15.25;5.15;;;;;;;-3.06;70.88;98756.88;4485172;31;20088;-74
2022/01/08 08:59:26;;;;;;;14.90;5.20;;;;;;;-3.12;71.29;98751.97;4485049;31;20378;-74
2022/01/08 09:01:55;;;;;;;11.07;5.68;;;;;;;-3.03;70.61;98758.47;4485114;31;20088;-75
2022/01/08 09:04:23;;;;;;;18.90;6.70;;;;;;;-3.17;70.47;98756.38;4484974;31;20564;-74
2022/01/08 09:06:50;;;;;;;27.98;8.02;;;;;;;-3.18;71.39;98747.00;4485010;31;20151;-74
2022/01/08 09:09:18;;;;;;;17.17;7.40;;;;;;;-3.15;71.35;98739.25;4485102;31;20097;-74
2022/01/08 09:11:45;;;;;;;14.82;6.78;;;;;;;-3.27;72.13;98737.06;4485003;31;20148;-74
2022/01/08 09:14:12;;;;;;;12.40;5.30;;;;;;;-3.16;71.60;98742.69;4484755;32;20079;-74
2022/01/08 09:16:45;;;;;;;13.55;5.82;;;;;;;-3.04;71.53;98742.28;4485038;31;20092;-74
2022/01/08 09:19:13;;;;;;;16.75;6.40;;;;;;;-2.96;71.70;98742.00;4484900;32;20089;-74
2022/01/08 09:21:40;;;;;;;15.50;7.07;;;;;;;-2.77;71.50;98737.09;4485018;31;20481;-74
2022/01/08 09:24:08;;;;;;;11.57;6.28;;;;;;;-2.67;71.33;98728.16;4484683;31;20105;-75
2022/01/08 09:26:36;;;;;;;16.55;6.47;;;;;;;-2.50;71.10;98730.13;4484978;31;20093;-75
2022/01/08 09:29:03;;;;;;;17.45;6.20;;;;;;;-2.42;71.10;98729.84;4484916;31;20160;-75
2022/01/08 09:31:31;;;;;;;20.48;7.82;;;;;;;-2.27;69.98;98725.00;4484783;31;20127;-74
2022/01/08 09:33:59;;;;;;;14.93;5.97;;;;;;;-2.12;69.69;98713.34;4484752;31;20442;-74
2022/01/08 09:36:26;;;;;;;12.35;6.45;;;;;;;-2.22;68.82;98716.25;4484946;31;20100;-74
2022/01/08 09:38:53;;;;;;;16.17;5.40;;;;;;;-2.29;70.45;98713.97;4484793;31;20092;-74
2022/01/08 09:41:21;;;;;;;13.05;6.12;;;;;;;-2.32;69.72;98712.34;4484298;31;20092;-74
2022/01/08 09:43:48;;;;;;;13.27;6.10;;;;;;;-2.27;70.10;98709.62;4484878;31;20406;-74
2022/01/08 09:46:16;;;;;;;13.18;6.43;;;;;;;-2.10;69.71;98701.28;4484883;31;20092;-74
2022/01/08 09:48:43;;;;;;;14.87;6.65;;;;;;;-2.07;69.72;98701.19;4482409;31;75972;-74
2022/01/08 09:51:11;;;;;;;25.70;7.03;;;;;;;-2.07;69.37;98694.31;4484645;31;20114;-74
2022/01/08 09:53:38;;;;;;;12.68;6.43;;;;;;;-1.99;69.06;98701.69;4484538;31;20092;-74
2022/01/08 09:56:06;;;;;;;14.75;7.00;;;;;;;-1.83;68.69;98704.50;4483121;32;20089;-75
2022/01/08 09:58:34;;;;;;;16.17;7.75;;;;;;;-1.67;68.04;98708.09;4484582;31;20092;-74
2022/01/08 10:01:01;;;;;;;14.30;6.65;;;;;;;-1.84;68.17;98707.97;4484721;31;20163;-74
2022/01/08 10:03:31;;;;;;;13.48;7.50;;;;;;;-1.85;68.32;98704.53;4484368;31;20107;-74
2022/01/08 10:05:59;;;;;;;19.58;7.93;;;;;;;-1.79;68.76;98701.75;4484479;31;20084;-74
2022/01/08 10:08:42;;;;;;;20.58;7.28;;;;;;;-1.58;68.19;98693.25;4484409;31;20130;-74
2022/01/08 10:11:10;;;;;;;35.75;8.73;;;;;;;-1.59;67.59;98682.09;4484300;31;20096;-74
2022/01/08 10:13:42;;;;;;;16.87;8.00;;;;;;;-1.44;67.81;98683.22;4484114;31;20111;-74
2022/01/08 10:19:01;;;;;;;25.00;8.73;;;;;;;-1.52;67.68;98682.72;4484174;31;20095;-74
2022/01/08 10:21:30;;;;;;;17.48;8.05;;;;;;;-1.43;67.04;98672.88;4484150;32;20165;-74
2022/01/08 10:24:04;;;;;;;18.55;9.10;;;;;;;-1.61;67.23;98673.66;4484065;31;20377;-74
2022/01/08 10:26:35;;;;;;;20.35;8.18;;;;;;;-1.56;67.54;98671.75;4484078;32;20131;-74
2022/01/08 10:29:05;;;;;;;17.00;8.43;;;;;;;-1.62;67.99;98672.81;4484174;31;20137;-74
2022/01/08 10:31:43;;;;;;;21.48;8.48;;;;;;;-1.58;67.91;98670.94;4484017;32;20118;-74
2022/01/08 10:34:15;;;;;;;20.73;9.07;;;;;;;-1.61;68.32;98679.59;4483968;31;20103;-74
2022/01/08 10:36:55;;;;;;;20.95;8.25;;;;;;;-1.65;68.17;98680.66;4483864;31;20112;-74
2022/01/08 10:39:32;;;;;;;15.27;7.93;;;;;;;-1.65;68.05;98683.22;4484025;31;20591;-74
2022/01/08 10:42:07;;;;;;;18.17;7.90;;;;;;;-1.51;67.85;98679.25;4484020;32;20143;-74
2022/01/08 10:44:34;;;;;;;21.23;8.50;;;;;;;-1.47;67.94;98683.34;4483751;31;20457;-74
2022/01/08 10:47:06;;;;;;;19.10;8.55;;;;;;;-1.45;67.47;98681.56;4483806;32;20162;-74
2022/01/08 10:50:00;;;;;;;17.20;8.27;;;;;;;-1.30;67.07;98688.63;4483684;31;20084;-74
2022/01/08 10:52:29;;;;;;;16.62;7.55;;;;;;;-1.26;66.70;98679.03;4484728;31;20426;-74
2022/01/08 10:54:58;;;;;;;22.13;8.32;;;;;;;-1.18;66.05;98682.13;4485898;31;20118;-74
2022/01/08 10:57:40;;;;;;;18.00;8.48;;;;;;;-1.00;65.42;98682.22;4485983;31;20124;-74
2022/01/08 11:00:11;;;;;;;19.05;8.32;;;;;;;-0.96;65.50;98679.44;4485962;31;20100;-74
2022/01/08 11:02:43;;;;;;;20.35;9.25;;;;;;;-1.03;65.82;98687.50;4486065;31;20132;-74
2022/01/08 11:05:12;;;;;;;26.25;9.93;;;;;;;-0.84;64.76;98680.66;4485821;31;20565;-74
2022/01/08 11:07:41;;;;;;;20.20;8.73;;;;;;;-0.70;64.79;98682.63;4486163;31;20120;-74
2022/01/08 11:10:16;;;;;;;17.70;7.93;;;;;;;-0.83;64.23;98673.78;4486019;31;20092;-74
2022/01/08 11:12:45;;;;;;;18.58;7.75;;;;;;;-0.85;63.54;98668.69;4485786;32;20096;-74
2022/01/08 11:17:51;;;;;;;18.27;7.03;;;;;;;-0.92;64.20;98673.28;4485829;31;20160;-74
2022/01/08 11:20:36;;;;;;;17.62;7.93;;;;;;;-0.75;63.60;98669.97;4485761;31;20521;-74
2022/01/08 11:23:03;;;;;;;21.95;10.02;;;;;;;-0.80;64.52;98669.34;4485882;31;20476;-74
2022/01/08 11:25:36;;;;;;;18.52;9.07;;;;;;;-0.64;63.73;98666.91;4485674;31;20087;-74
2022/01/08 11:28:10;;;;;;;17.05;8.07;;;;;;;-0.55;63.68;98668.22;4485821;31;20116;-74
2022/01/08 11:30:38;;;;;;;15.48;7.53;;;;;;;-0.51;63.29;98674.09;4486021;31;20111;-74
2022/01/08 11:33:14;;;;;;;15.85;8.15;;;;;;;-0.49;62.73;98667.94;4485825;31;20092;-74
2022/01/08 11:35:42;;;;;;;17.70;8.07;;;;;;;-0.37;61.98;98663.97;4485625;32;20123;-74
2022/01/08 11:38:12;;;;;;;16.60;8.07;;;;;;;-0.35;62.66;98659.59;4485932;31;20142;-74
2022/01/08 11:40:44;;;;;;;19.55;7.97;;;;;;;-0.42;62.39;98668.53;4485885;31;20109;-74
2022/01/08 11:43:14;;;;;;;15.38;8.07;;;;;;;-0.23;62.32;98665.91;4485694;32;20491;-74
2022/01/08 11:45:52;;;;;;;15.23;7.22;;;;;;;-0.33;61.58;98662.94;4485508;31;20411;-74
2022/01/08 11:48:23;;;;;;;20.12;8.07;;;;;;;-0.34;62.45;98660.44;4485697;31;20708;-74
2022/01/08 11:50:59;;;;;;;17.98;8.50;;;;;;;-0.11;62.86;98667.06;4484256;32;20113;-74
2022/01/08 11:53:31;;;;;;;14.55;7.07;;;;;;;-0.02;60.41;98662.31;4485617;31;20356;-74
2022/01/08 11:56:01;;;;;;;19.02;7.93;;;;;;;-0.10;60.29;98661.84;4485500;31;20099;-74
2022/01/08 11:58:31;;;;;;;13.85;7.15;;;;;;;-0.33;61.22;98659.50;4485666;31;20149;-74
2022/01/08 12:00:59;;;;;;;14.52;7.10;;;;;;;-0.41;60.67;98650.44;4485567;31;20521;-74